This is the latest recevied weather packets stored in our database for station/object KF4KUL. If no packets are shown the sender has not sent any weather packets the latest 10 day(s).
| Time | Temp. | Humidity | Pressure | Rain* | Wind** | Luminosity | Snow |
|---|---|---|---|---|---|---|---|
| 1777300533 | 26.11° C | 71% | 1016.1 hPa | 0 mm | - | - | - |
| 1777299632 | 26.11° C | 73% | 1015.9 hPa | 0 mm | - | - | - |
| 1777298731 | 25° C | 77% | 1015.8 hPa | 0 mm | - | - | - |
| 1777297830 | 24.44° C | 79% | 1015.7 hPa | 0 mm | - | - | - |
| 1777296929 | 24.44° C | 81% | 1015.5 hPa | 0 mm | - | - | - |
| 1777296028 | 23.89° C | 83% | 1015.4 hPa | 0 mm | - | - | - |
| 1777295127 | 23.33° C | 85% | 1015.4 hPa | 0 mm | - | - | - |
| 1777294226 | 22.22° C | 89% | 1015.3 hPa | 0 mm | - | - | - |
| 1777293325 | 21.67° C | 92% | 1015.3 hPa | 0 mm | - | - | - |
| 1777292424 | 21.11° C | 93% | 1015.2 hPa | 0 mm | - | - | - |
| 1777291523 | 20.56° C | 93% | 1015.1 hPa | 0 mm | - | - | - |
| 1777290622 | 21.11° C | 93% | 1014.9 hPa | 0 mm | - | - | - |
| 1777289721 | 21.11° C | 93% | 1014.8 hPa | 0 mm | - | - | - |
| 1777288820 | 20.56° C | 93% | 1014.5 hPa | 0 mm | - | - | - |
| 1777287919 | 20° C | 92% | 1014.1 hPa | 0 mm | - | - | - |
| 1777287018 | 20.56° C | 92% | 1013.8 hPa | 0 mm | - | - | - |
| 1777286117 | 20.56° C | 92% | 1013.6 hPa | 0 mm | - | - | - |
| 1777285216 | 20.56° C | 92% | 1013.4 hPa | 0 mm | - | - | - |
| 1777284315 | 20.56° C | 92% | 1013.3 hPa | 0 mm | - | - | - |
| 1777283414 | 20.56° C | 92% | 1013.1 hPa | 0 mm | - | - | - |
| 1777282513 | 21.11° C | 92% | 1013 hPa | 0 mm | - | - | - |
| 1777281612 | 21.11° C | 92% | 1012.9 hPa | 0 mm | - | - | - |
| 1777280711 | 21.11° C | 92% | 1012.7 hPa | 0 mm | - | - | - |
| 1777279810 | 21.11° C | 92% | 1012.6 hPa | 0 mm | - | - | - |
| 1777278909 | 21.67° C | 92% | 1012.7 hPa | 0 mm | - | - | - |
* Rain latest hour (hover to see other rain measurements)
** Current wind speed in m/s (hover to see current wind gust speed)